Sunday, December 21, 2014
00:24 UTC
  |  Log In   |  Register Free
Airport Search:

Oroville Municipal Airport
(KOVE)

Oroville Municipal Airport Diagram
No Airport Diagram Available

FAA data valid effective November 13, 2014 - January 08, 2015 (unless otherwise noted).

 
 
 
 
 
 
 
 
 
 
 
 
 
 

Current Aviation Weather for Oroville Municipal Airport (KOVE)

The most recent METAR observation for KOVE was updated at: 2117
METAR Summary (Translated METAR)
KOVE
182053Z AUTO 16006KT 10SM OVC040 14/07 A3018 RMK AO2 SLP222 T01390072 58011
KCIC
181955Z 13007KT 10SM BKN033 OVC050 12/08 A3019
(21.5 nm NW from KOVE)
KBAB
182058Z 18005KT 10SM SCT210 15/08 A3016 RMK AO2A SLP290 T01470077 58012 $
(22.8 nm SE from KOVE)
TAF Summary (Translated TAF)
KBAB
(22.8 nm SE from KOVE)
2015/2117 14009KT 9999 OVC022 QNH3011INS TEMPO 2015/2020 OVC015 BECMG 2021/2022 VRB06KT 9000 -SHRA OVC030 QNH3005INS BECMG 2111/2112 VRB06KT 9999 -DZ OVC012 QNH3008INS TX13/2021Z TN09/2112Z COR 201558 LAST NO AMDS AFT 2015 NEXT 2119
  Airport Weather Conditions for KOVE

 Current Weather at OVE
56° F
Overcast
Southeast winds at 12.7 mph
OVE NOAA Radar

Pressure: 30.20 in
Humidity: 87%
Wind: Southeast at 12.7 MPH (11 KT)
Dew Point: 52.0°F
Visibility: 10.00 mi


Airport Weather Forecast for KOVE

Translated METAR and TAF for KOVE
Translated METAR for KOVE (0025 UTC 21 December 2014)
found at http://aviationweather.gov/adds/metars/
 
METAR text: KOVE 202353Z AUTO 15011KT 10SM OVC042 13/11 A3020 RMK AO2 RAE08 SLP229 P0000 60001 T01330111 10133 20117 55001
Conditions at: KOVE (OROVILLE , CA, US) observed 2353 UTC 20 December 2014
Temperature: 13.3°C (56°F)
Dewpoint: 11.1°C (52°F) [RH = 87%]
Pressure (altimeter): 30.20 inches Hg (1022.8 mb)
[Sea-level pressure: 1022.9 mb]
Winds: from the SSE (150 degrees) at 13 MPH (11 knots; 5.7 m/s)
Visibility: 10 or more miles (16+ km)
Ceiling: 4200 feet AGL
Clouds: overcast cloud deck at 4200 feet AGL
Weather: automated observation with no human augmentation;
there may or may not be significant weather present at this time
Translated TAF for KOVE

There is no translated TAF available for this airport

Find All Airport Services Find A Hotel Find A Rental Car Find A Golf Course Find A Restaurant $100 Hamburger



FBO's on the Field
FBO Company Facility Photos Services Transportation Aviation Fuel Prices: Prices include tax
Catering Weather Repair Courtesy Rental Type 100LL JetA JetA+ MOGAS 8087
 
Oroville Municipal Airport

This FBO has not yet been rated
FS:Epic
Last Updated: Dec-18
Login to update fuel prices
SS:
Contact Oroville Municipal AirportMore FBO Information
 
Add another FBO Facility Photos Catering Weather Repair Courtesy Rental Type 100LL JetA JetA+ MOGAS 8087
Services Transportation Aviation Fuel Prices: Prices include tax


model-print
model-print
model-print
model-print